createdAt,value
2022-12-08T00:01:30.048Z,15.73
2022-12-08T00:03:59.848Z,21.43
2022-12-08T00:06:55.962Z,22.63
2022-12-08T00:09:41.961Z,18.87
2022-12-08T00:12:15.271Z,17.80
2022-12-08T00:14:45.921Z,18.43
2022-12-08T00:17:16.131Z,18.27
2022-12-08T00:19:43.993Z,20.93
2022-12-08T00:22:15.215Z,21.73
2022-12-08T00:24:45.420Z,15.47
2022-12-08T00:27:15.354Z,17.97
2022-12-08T00:29:44.689Z,18.37
2022-12-08T00:32:11.669Z,14.50
2022-12-08T00:34:38.401Z,16.27
2022-12-08T00:37:05.139Z,20.33
2022-12-08T00:39:32.100Z,20.33
2022-12-08T00:42:14.102Z,16.10
2022-12-08T00:44:43.463Z,19.97
2022-12-08T00:47:12.034Z,21.80
2022-12-08T00:49:38.994Z,16.33
2022-12-08T00:52:06.063Z,19.60
2022-12-08T00:54:32.811Z,18.17
2022-12-08T00:56:59.515Z,18.83
2022-12-08T00:59:26.249Z,20.57
2022-12-08T01:01:52.955Z,19.63
2022-12-08T01:04:20.832Z,19.17
2022-12-08T01:06:48.351Z,17.70
2022-12-08T01:09:17.357Z,19.40
2022-12-08T01:11:45.092Z,16.33
2022-12-08T01:14:12.567Z,16.53
2022-12-08T01:16:41.382Z,15.67
2022-12-08T01:19:11.409Z,17.30
2022-12-08T01:21:38.328Z,18.57
2022-12-08T01:24:05.771Z,17.63
2022-12-08T01:26:32.567Z,19.70
2022-12-08T01:28:59.396Z,16.93
2022-12-08T01:31:26.208Z,15.17
2022-12-08T01:33:53.225Z,14.27
2022-12-08T01:36:30.146Z,16.30
2022-12-08T01:39:00.224Z,14.23
2022-12-08T01:41:33.469Z,15.50
2022-12-08T01:44:09.269Z,15.87
2022-12-08T01:46:40.769Z,15.43
2022-12-08T01:49:18.349Z,15.47
2022-12-08T01:52:28.908Z,13.70
2022-12-08T01:55:08.562Z,19.00
2022-12-08T01:57:53.694Z,14.03
2022-12-08T02:00:22.755Z,15.30
2022-12-08T02:03:03.216Z,15.37
2022-12-08T02:05:35.699Z,13.97
2022-12-08T02:08:08.111Z,12.93
2022-12-08T02:10:39.701Z,16.10
2022-12-08T02:13:12.824Z,13.30
2022-12-08T02:16:04.381Z,13.83
2022-12-08T02:19:29.089Z,13.63
2022-12-08T02:21:54.576Z,14.97
2022-12-08T02:24:27.021Z,18.00
2022-12-08T02:27:18.159Z,16.43
2022-12-08T02:30:12.734Z,15.23
2022-12-08T02:32:48.211Z,12.67
2022-12-08T02:35:28.879Z,16.53
2022-12-08T02:38:07.917Z,13.37
2022-12-08T02:41:13.730Z,16.40
2022-12-08T02:43:49.296Z,17.77
2022-12-08T02:46:33.104Z,11.90
2022-12-08T02:49:02.021Z,14.83
2022-12-08T02:51:28.836Z,15.67
2022-12-08T02:53:56.045Z,14.83
2022-12-08T02:57:14.391Z,15.53
2022-12-08T03:00:09.700Z,17.10
2022-12-08T03:02:51.039Z,15.07
2022-12-08T03:05:44.987Z,14.13
2022-12-08T03:08:28.262Z,10.33
2022-12-08T03:11:13.993Z,11.63
2022-12-08T03:13:50.227Z,15.47
2022-12-08T03:16:24.569Z,11.07
2022-12-08T03:19:06.471Z,14.70
2022-12-08T03:21:35.815Z,13.30
2022-12-08T03:24:07.496Z,14.77
2022-12-08T03:26:50.925Z,14.17
2022-12-08T03:29:18.698Z,17.70
2022-12-08T03:32:01.232Z,14.80
2022-12-08T03:34:30.208Z,12.43
2022-12-08T03:36:57.085Z,16.40
2022-12-08T03:39:24.193Z,13.87
2022-12-08T03:41:50.964Z,14.17
2022-12-08T03:44:17.647Z,15.57
2022-12-08T03:46:44.379Z,14.13
2022-12-08T03:49:11.527Z,15.10
2022-12-08T03:51:38.226Z,12.73
2022-12-08T03:54:05.116Z,14.10
2022-12-08T03:56:36.776Z,14.00
2022-12-08T03:59:05.301Z,15.67
2022-12-08T04:01:32.255Z,14.40
2022-12-08T04:03:59.076Z,13.73
2022-12-08T04:06:25.910Z,12.53
2022-12-08T04:08:53.780Z,11.33
2022-12-08T04:11:21.375Z,11.57
2022-12-08T04:13:48.681Z,14.80
2022-12-08T04:16:24.899Z,11.60
2022-12-08T04:18:52.355Z,12.17
2022-12-08T04:21:19.174Z,14.03
2022-12-08T04:23:46.815Z,12.07
2022-12-08T04:26:16.353Z,11.33
2022-12-08T04:28:43.266Z,12.20
2022-12-08T04:31:10.203Z,13.17
2022-12-08T04:33:36.992Z,13.37
2022-12-08T04:36:05.693Z,14.23
2022-12-08T04:38:34.047Z,9.97
2022-12-08T04:41:01.480Z,12.50
2022-12-08T04:43:28.697Z,11.37
2022-12-08T04:45:55.691Z,12.87
2022-12-08T04:48:22.442Z,13.27
2022-12-08T04:50:49.195Z,11.83
2022-12-08T04:53:15.985Z,11.27
2022-12-08T04:55:44.864Z,11.87
2022-12-08T04:58:14.716Z,10.00
2022-12-08T05:00:42.616Z,14.70
2022-12-08T05:03:09.922Z,11.60
2022-12-08T05:05:36.794Z,14.90
2022-12-08T05:08:04.027Z,11.13
2022-12-08T05:10:31.565Z,12.60
2022-12-08T05:13:00.700Z,12.03
2022-12-08T05:15:27.568Z,9.70
2022-12-08T05:17:54.408Z,14.70
2022-12-08T05:20:21.509Z,10.83
2022-12-08T05:22:48.210Z,13.93
2022-12-08T05:25:15.251Z,13.27
2022-12-08T05:27:42.993Z,13.37
2022-12-08T05:30:10.021Z,19.93
2022-12-08T05:32:37.005Z,17.70
2022-12-08T05:35:03.861Z,20.40
2022-12-08T05:37:30.846Z,17.40
2022-12-08T05:39:57.624Z,17.57
2022-12-08T05:42:25.101Z,18.23
2022-12-08T05:44:52.724Z,18.90
2022-12-08T05:47:19.535Z,16.23
2022-12-08T05:49:46.346Z,15.60
2022-12-08T05:52:13.085Z,18.20
2022-12-08T05:54:39.841Z,18.17
2022-12-08T05:57:06.748Z,18.63
2022-12-08T05:59:33.548Z,17.63
2022-12-08T06:02:00.451Z,18.63
2022-12-08T06:04:27.304Z,16.43
2022-12-08T06:06:53.994Z,16.80
2022-12-08T06:09:20.683Z,17.20
2022-12-08T06:11:47.483Z,18.93
2022-12-08T06:14:14.267Z,17.83
2022-12-08T06:16:41.152Z,17.57
2022-12-08T06:19:07.976Z,15.63
2022-12-08T06:21:34.758Z,17.93
2022-12-08T06:24:01.526Z,17.70
2022-12-08T06:26:28.872Z,19.27
2022-12-08T06:28:55.844Z,15.63
2022-12-08T06:31:26.992Z,20.47
2022-12-08T06:33:55.108Z,19.53
2022-12-08T06:36:25.696Z,16.87
2022-12-08T06:38:52.417Z,21.63
2022-12-08T06:41:19.254Z,16.50
2022-12-08T06:43:46.735Z,18.47
2022-12-08T06:46:19.733Z,17.67
2022-12-08T06:48:46.730Z,19.70
2022-12-08T06:51:17.887Z,21.13
2022-12-08T06:53:46.404Z,19.37
2022-12-08T06:56:15.771Z,17.60
2022-12-08T06:58:46.096Z,15.33
2022-12-08T07:01:17.381Z,16.60
2022-12-08T07:03:44.385Z,18.30
2022-12-08T07:06:18.168Z,16.47
2022-12-08T07:08:44.916Z,17.47
2022-12-08T07:11:16.688Z,19.70
2022-12-08T07:13:48.119Z,19.07
2022-12-08T07:16:14.972Z,18.60
2022-12-08T07:18:42.882Z,16.83
2022-12-08T07:21:14.892Z,17.83
2022-12-08T07:23:43.219Z,23.53
2022-12-08T07:26:12.679Z,20.03
2022-12-08T07:28:42.192Z,20.90
2022-12-08T07:31:21.537Z,20.90
2022-12-08T07:33:50.065Z,19.17
2022-12-08T07:36:17.336Z,21.80
2022-12-08T07:38:44.669Z,22.87
2022-12-08T07:41:16.992Z,21.00
2022-12-08T07:43:44.335Z,21.53
2022-12-08T07:46:17.918Z,21.20
2022-12-08T07:48:46.114Z,22.40
2022-12-08T07:51:15.572Z,21.07
2022-12-08T07:53:49.857Z,23.57
2022-12-08T07:56:20.141Z,24.43
2022-12-08T07:58:46.942Z,21.10
2022-12-08T08:01:40.041Z,20.17
2022-12-08T08:04:07.204Z,21.53
2022-12-08T08:06:36.847Z,18.10
2022-12-08T08:09:04.355Z,19.67
2022-12-08T08:11:31.083Z,19.10
2022-12-08T08:13:58.401Z,21.33
2022-12-08T08:16:25.249Z,20.60
2022-12-08T08:18:52.420Z,19.80
2022-12-08T08:21:44.274Z,20.90
2022-12-08T08:24:08.722Z,21.60
2022-12-08T08:26:36.964Z,17.83
2022-12-08T08:29:04.050Z,20.60
2022-12-08T08:31:30.874Z,19.73
2022-12-08T08:33:57.700Z,21.47
2022-12-08T08:36:24.393Z,21.37
2022-12-08T08:38:53.381Z,19.57
2022-12-08T08:41:20.091Z,20.07
2022-12-08T08:43:46.823Z,19.97
2022-12-08T08:46:13.608Z,20.83
2022-12-08T08:48:40.790Z,21.37
2022-12-08T08:51:13.449Z,18.80
2022-12-08T08:53:41.598Z,21.03
2022-12-08T08:56:14.263Z,23.73
2022-12-08T08:58:41.677Z,20.93
2022-12-08T09:01:08.702Z,21.80
2022-12-08T09:03:35.435Z,19.23
2022-12-08T09:06:02.223Z,19.30
2022-12-08T09:08:29.159Z,18.17
2022-12-08T09:10:55.939Z,22.43
2022-12-08T09:13:22.776Z,18.23
2022-12-08T09:15:49.720Z,19.07
2022-12-08T09:18:16.501Z,19.33
2022-12-08T09:20:43.375Z,22.10
2022-12-08T09:23:10.167Z,31.13
2022-12-08T09:25:36.975Z,28.47
2022-12-08T09:28:03.787Z,20.70
2022-12-08T09:30:30.529Z,19.10
2022-12-08T09:32:57.369Z,22.70
2022-12-08T09:35:24.054Z,20.77
2022-12-08T09:37:50.752Z,16.60
2022-12-08T09:40:21.061Z,21.17
2022-12-08T09:43:31.861Z,18.23
2022-12-08T09:45:59.483Z,19.17
2022-12-08T09:48:37.043Z,18.23
2022-12-08T09:51:05.748Z,20.37
2022-12-08T09:53:53.296Z,17.20
2022-12-08T09:56:24.585Z,15.93
2022-12-08T09:59:03.717Z,13.63
2022-12-08T10:01:35.125Z,19.80
2022-12-08T10:04:02.182Z,22.40
2022-12-08T10:06:53.037Z,30.63
2022-12-08T10:09:47.586Z,21.13
2022-12-08T10:12:45.146Z,19.37
2022-12-08T10:15:41.655Z,18.13
2022-12-08T10:18:22.973Z,17.87
2022-12-08T10:20:51.659Z,17.10
2022-12-08T10:23:34.644Z,17.03
2022-12-08T10:26:05.644Z,14.57
2022-12-08T10:28:34.363Z,14.60
2022-12-08T10:31:01.319Z,16.17
2022-12-08T10:33:31.086Z,16.77
2022-12-08T10:36:02.852Z,14.83
2022-12-08T10:38:38.585Z,18.83
2022-12-08T10:41:18.032Z,28.60
2022-12-08T10:43:57.854Z,16.97
2022-12-08T10:46:27.862Z,17.90
2022-12-08T10:49:10.878Z,13.17
2022-12-08T10:51:42.699Z,13.30
2022-12-08T10:54:38.318Z,11.57
2022-12-08T10:57:05.007Z,11.53
2022-12-08T10:59:33.985Z,13.27
2022-12-08T11:02:01.202Z,10.37
2022-12-08T11:04:40.945Z,9.73
2022-12-08T11:07:11.556Z,11.33
2022-12-08T11:09:48.760Z,9.80
2022-12-08T11:12:17.306Z,11.87
2022-12-08T11:14:43.930Z,12.00
2022-12-08T11:17:27.571Z,11.37
2022-12-08T11:20:03.963Z,11.33
2022-12-08T11:22:34.190Z,11.57
2022-12-08T11:25:20.463Z,13.50
2022-12-08T11:27:50.458Z,9.60
2022-12-08T11:30:20.933Z,10.40
2022-12-08T11:33:12.566Z,8.40
2022-12-08T11:35:43.990Z,6.87
2022-12-08T11:38:23.647Z,7.10
2022-12-08T11:41:15.553Z,7.20
2022-12-08T11:44:22.714Z,6.67
2022-12-08T11:47:06.565Z,6.70
2022-12-08T11:49:40.148Z,6.83
2022-12-08T11:52:33.625Z,8.27
2022-12-08T11:55:37.044Z,7.17
2022-12-08T11:58:41.055Z,7.27
2022-12-08T12:01:23.744Z,8.27
2022-12-08T12:04:16.344Z,7.23
2022-12-08T12:07:18.554Z,7.67
2022-12-08T12:10:20.761Z,7.33
2022-12-08T12:13:35.284Z,9.67
2022-12-08T12:16:29.343Z,7.07
2022-12-08T12:19:10.247Z,8.90
2022-12-08T12:21:47.985Z,8.23
2022-12-08T12:24:36.202Z,6.20
2022-12-08T12:27:13.271Z,8.40
2022-12-08T12:29:55.495Z,7.97
2022-12-08T12:32:24.449Z,7.60
2022-12-08T12:34:56.933Z,8.40
2022-12-08T12:37:38.347Z,8.00
2022-12-08T12:40:18.396Z,8.77
2022-12-08T12:43:09.575Z,7.83
2022-12-08T12:45:43.369Z,7.63
2022-12-08T12:48:19.579Z,9.07
2022-12-08T12:50:51.695Z,12.93
2022-12-08T12:53:18.874Z,11.03
2022-12-08T12:55:45.489Z,9.07
2022-12-08T12:58:30.221Z,9.43
2022-12-08T13:01:14.960Z,8.43
2022-12-08T13:04:01.590Z,9.40
2022-12-08T13:06:58.565Z,8.03
2022-12-08T13:09:39.102Z,7.07
2022-12-08T13:12:19.735Z,9.10
2022-12-08T13:14:50.614Z,8.37
2022-12-08T13:17:37.052Z,7.63
2022-12-08T13:20:16.667Z,8.77
2022-12-08T13:23:13.466Z,7.90
2022-12-08T13:25:40.092Z,8.70
2022-12-08T13:28:31.128Z,7.43
2022-12-08T13:31:01.819Z,6.87
2022-12-08T13:33:39.175Z,7.43
2022-12-08T13:36:23.902Z,7.03
2022-12-08T13:38:58.254Z,7.30
2022-12-08T13:41:47.623Z,8.93
2022-12-08T13:45:18.700Z,8.43
2022-12-08T13:47:33.320Z,7.03
2022-12-08T13:59:21.100Z,8.43
2022-12-08T14:01:50.669Z,10.23
2022-12-08T14:04:47.985Z,6.83
2022-12-08T14:07:12.016Z,8.20
2022-12-08T14:09:41.312Z,10.80
2022-12-08T14:12:43.306Z,8.17
2022-12-08T14:15:15.159Z,8.63
2022-12-08T14:17:51.246Z,9.03
2022-12-08T14:20:28.084Z,10.20
2022-12-08T14:22:56.025Z,7.87
2022-12-08T14:25:24.007Z,7.00
2022-12-08T14:27:58.893Z,6.30
2022-12-08T14:30:31.116Z,7.90
2022-12-08T14:33:01.021Z,6.83
2022-12-08T14:35:38.980Z,7.13
2022-12-08T14:38:17.955Z,6.27
2022-12-08T14:40:48.795Z,6.03
2022-12-08T14:43:25.619Z,6.03
2022-12-08T14:45:59.916Z,6.80
2022-12-08T14:48:38.385Z,6.67
2022-12-08T14:51:23.057Z,6.10
2022-12-08T14:54:06.344Z,6.53
2022-12-08T14:56:53.540Z,6.87
2022-12-08T14:59:31.016Z,5.20
2022-12-08T15:02:15.667Z,7.27
2022-12-08T15:04:47.810Z,6.13
2022-12-08T15:07:24.760Z,6.67
2022-12-08T15:10:27.492Z,6.73
2022-12-08T15:13:09.436Z,6.77
2022-12-08T15:15:55.207Z,7.30
2022-12-08T15:18:40.342Z,6.90
2022-12-08T15:21:12.647Z,6.03
2022-12-08T15:23:45.505Z,6.80
2022-12-08T15:26:27.833Z,6.50
2022-12-08T15:28:56.039Z,7.10
2022-12-08T15:31:22.808Z,6.13
2022-12-08T15:33:49.590Z,5.70
2022-12-08T15:36:16.571Z,6.53
2022-12-08T15:38:43.567Z,6.80
2022-12-08T15:41:14.996Z,6.47
2022-12-08T15:43:42.270Z,6.50
2022-12-08T15:46:08.993Z,7.93
2022-12-08T15:48:38.221Z,7.50
2022-12-08T15:51:05.005Z,8.23
2022-12-08T15:53:31.719Z,8.10
2022-12-08T15:56:26.933Z,9.40
2022-12-08T15:58:56.614Z,16.93
2022-12-08T16:01:24.437Z,15.93
2022-12-08T16:09:40.045Z,7.90
2022-12-08T16:13:40.470Z,8.00
2022-12-08T16:18:31.101Z,6.10
2022-12-08T16:21:09.575Z,6.10
2022-12-08T16:23:44.987Z,7.53
2022-12-08T16:27:01.248Z,6.00
2022-12-08T16:29:09.335Z,6.13
2022-12-08T16:31:37.062Z,5.70
2022-12-08T16:34:03.981Z,7.40
2022-12-08T16:36:30.672Z,9.17
2022-12-08T16:38:57.394Z,14.60
2022-12-08T16:41:42.888Z,24.30
2022-12-08T16:44:09.598Z,23.53
2022-12-08T16:46:36.922Z,18.03
2022-12-08T16:49:08.094Z,12.13
2022-12-08T16:51:35.215Z,7.97
2022-12-08T16:54:01.965Z,7.97
2022-12-08T16:56:33.090Z,7.53
2022-12-08T16:59:02.227Z,9.20
2022-12-08T17:01:29.354Z,10.20
2022-12-08T17:06:42.962Z,11.23
2022-12-08T17:09:09.792Z,9.87
2022-12-08T17:11:42.664Z,11.90
2022-12-08T17:14:12.484Z,15.80
2022-12-08T17:16:39.538Z,10.93
2022-12-08T17:19:06.312Z,14.83
2022-12-08T17:21:33.031Z,10.17
2022-12-08T17:23:59.714Z,12.03
2022-12-08T17:26:26.513Z,11.30
2022-12-08T17:29:01.523Z,12.80
2022-12-08T17:31:31.516Z,17.47
2022-12-08T17:34:04.668Z,15.80
2022-12-08T17:36:31.601Z,13.37
2022-12-08T17:39:00.677Z,12.57
2022-12-08T17:41:28.810Z,13.13
2022-12-08T17:43:56.695Z,14.37
2022-12-08T17:46:24.087Z,14.33
2022-12-08T17:48:51.294Z,10.13
2022-12-08T17:51:18.889Z,11.93
2022-12-08T17:53:45.813Z,10.00
2022-12-08T17:56:20.586Z,9.97
2022-12-08T17:58:53.985Z,9.73
2022-12-08T18:01:23.242Z,15.13
2022-12-08T18:03:50.535Z,10.33
2022-12-08T18:06:17.762Z,11.43
2022-12-08T18:08:44.953Z,11.80
2022-12-08T18:11:18.711Z,14.23
2022-12-08T18:13:47.937Z,10.40
2022-12-08T18:16:15.575Z,10.93
2022-12-08T18:18:42.356Z,13.63
2022-12-08T18:21:09.709Z,11.60
2022-12-08T18:23:42.568Z,11.47
2022-12-08T18:26:13.363Z,9.43
2022-12-08T18:28:41.330Z,12.20
2022-12-08T18:31:20.842Z,10.00
2022-12-08T18:33:49.574Z,9.77
2022-12-08T18:36:21.365Z,8.37
2022-12-08T18:38:55.132Z,13.13
2022-12-08T18:41:25.878Z,9.20
2022-12-08T18:43:57.164Z,11.97
2022-12-08T18:46:25.258Z,8.77
2022-12-08T18:48:52.633Z,8.83
2022-12-08T18:51:23.033Z,9.60
2022-12-08T18:53:51.664Z,9.50
2022-12-08T18:56:25.882Z,11.40
2022-12-08T18:58:55.395Z,11.47
2022-12-08T19:01:25.527Z,13.67
2022-12-08T19:04:19.721Z,14.37
2022-12-08T19:06:40.612Z,11.17
2022-12-08T19:09:12.446Z,13.90
2022-12-08T19:11:40.996Z,9.13
2022-12-08T19:14:08.200Z,10.33
2022-12-08T19:16:35.875Z,8.70
2022-12-08T19:19:04.690Z,14.47
2022-12-08T19:21:32.839Z,12.33
2022-12-08T19:24:00.052Z,17.40
2022-12-08T19:26:28.594Z,16.03
2022-12-08T19:28:58.108Z,10.73
2022-12-08T19:31:25.340Z,10.27
2022-12-08T19:33:52.259Z,11.47
2022-12-08T19:36:22.623Z,8.93
2022-12-08T19:39:08.723Z,9.77
2022-12-08T19:41:55.410Z,18.73
2022-12-08T19:44:34.155Z,26.63
2022-12-08T19:47:01.889Z,25.20
2022-12-08T19:49:29.332Z,15.40
2022-12-08T19:51:56.632Z,14.77
2022-12-08T19:54:23.873Z,12.93
2022-12-08T19:56:50.779Z,11.50
2022-12-08T19:59:18.094Z,10.07
2022-12-08T20:01:47.903Z,9.23
2022-12-08T20:04:16.191Z,9.20
2022-12-08T20:06:45.589Z,10.30
2022-12-08T20:09:14.470Z,9.23
2022-12-08T20:11:41.884Z,10.30
2022-12-08T20:14:08.937Z,9.30
2022-12-08T20:16:36.066Z,10.07
2022-12-08T20:19:03.600Z,13.97
2022-12-08T20:21:30.374Z,10.43
2022-12-08T20:23:57.125Z,9.60
2022-12-08T20:26:24.399Z,11.00
2022-12-08T20:28:54.132Z,13.00
2022-12-08T20:31:28.031Z,11.10
2022-12-08T20:33:55.436Z,13.37
2022-12-08T20:36:24.218Z,13.23
2022-12-08T20:38:54.237Z,14.10
2022-12-08T20:41:23.214Z,13.87
2022-12-08T20:43:51.963Z,11.10
2022-12-08T20:46:20.760Z,12.10
2022-12-08T20:48:48.433Z,12.83
2022-12-08T20:51:19.398Z,11.93
2022-12-08T20:53:47.150Z,13.73
2022-12-08T20:56:18.027Z,15.80
2022-12-08T20:58:45.774Z,13.37
2022-12-08T21:01:15.855Z,15.07
2022-12-08T21:03:44.888Z,15.87
2022-12-08T21:06:12.781Z,18.83
2022-12-08T21:08:40.808Z,13.70
2022-12-08T21:11:09.214Z,16.47
2022-12-08T21:13:39.437Z,18.00
2022-12-08T21:16:09.146Z,15.47
2022-12-08T21:18:39.713Z,13.47
2022-12-08T21:21:14.335Z,15.30
2022-12-08T21:23:42.397Z,22.10
2022-12-08T21:26:15.600Z,15.53
2022-12-08T21:28:43.577Z,13.83
2022-12-08T21:31:14.977Z,18.23
2022-12-08T21:33:43.077Z,13.40
2022-12-08T21:36:17.744Z,13.93
2022-12-08T21:38:46.270Z,14.20
2022-12-08T21:41:37.266Z,15.57
2022-12-08T21:44:06.022Z,15.93
2022-12-08T21:46:33.123Z,14.73
2022-12-08T21:48:59.950Z,15.63
2022-12-08T21:51:26.907Z,18.17
2022-12-08T21:53:54.084Z,18.67
2022-12-08T21:56:20.832Z,20.77
2022-12-08T21:58:47.668Z,17.57
2022-12-08T22:01:14.532Z,14.27
2022-12-08T22:03:41.932Z,15.73
2022-12-08T22:06:12.764Z,15.33
2022-12-08T22:08:41.185Z,15.43
2022-12-08T22:11:10.666Z,16.23
2022-12-08T22:13:40.878Z,15.13
2022-12-08T22:16:12.076Z,14.33
2022-12-08T22:18:39.155Z,13.47
2022-12-08T22:21:17.304Z,12.30
2022-12-08T22:23:45.211Z,12.77
2022-12-08T22:26:12.672Z,13.00
2022-12-08T22:28:42.041Z,12.90
2022-12-08T22:31:16.092Z,11.20
2022-12-08T22:33:44.281Z,12.60
2022-12-08T22:36:23.035Z,14.73
2022-12-08T22:38:51.542Z,14.83
2022-12-08T22:41:19.483Z,16.73
2022-12-08T22:43:47.911Z,14.00
2022-12-08T22:46:18.540Z,14.43
2022-12-08T22:48:45.732Z,14.30
2022-12-08T22:51:13.144Z,14.47
2022-12-08T22:53:40.666Z,15.20
2022-12-08T22:56:10.987Z,20.30
2022-12-08T22:58:39.947Z,20.67
2022-12-08T23:01:07.574Z,20.30
2022-12-08T23:03:34.799Z,19.20
2022-12-08T23:06:02.267Z,16.57
2022-12-08T23:08:29.413Z,19.20
2022-12-08T23:10:56.499Z,14.77
2022-12-08T23:13:23.547Z,16.83
2022-12-08T23:15:50.464Z,16.77
2022-12-08T23:18:21.682Z,17.13
2022-12-08T23:20:48.415Z,17.67
2022-12-08T23:23:16.224Z,13.80
2022-12-08T23:25:43.406Z,15.37
2022-12-08T23:28:11.256Z,14.23
2022-12-08T23:30:42.058Z,11.57
2022-12-08T23:33:09.100Z,14.87
2022-12-08T23:35:36.039Z,14.93
2022-12-08T23:38:03.627Z,14.13
2022-12-08T23:40:30.573Z,14.10
2022-12-08T23:42:57.285Z,11.17
2022-12-08T23:45:24.102Z,15.10
2022-12-08T23:47:50.942Z,13.43
2022-12-08T23:50:17.726Z,13.20
2022-12-08T23:52:45.015Z,13.93
2022-12-08T23:55:11.809Z,15.63
2022-12-08T23:57:38.777Z,13.30
